Time;durP1;ratioP1;P1;durP2;ratioP2;P2;SDS_P1;SDS_P2;PMS_P1;PMS_P2;Temp;Humidity;BMP_temperature;BMP_pressure;BME280_temperature;BME280_humidity;BME280_pressure;Samples;Min_cycle;Max_cycle;Signal;HPM_P1;HPM_P2
2021/11/20 00:01:41;;;;;;;26.07;17.17;;;;;;;;;;5034901;28;20270;-68
2021/11/20 00:04:07;;;;;;;22.47;15.60;;;;;;;;;;5035777;28;20744;-68
2021/11/20 00:06:38;;;;;;;21.87;16.43;;;;;;;;;;5034478;28;20321;-69
2021/11/20 00:09:06;;;;;;;20.97;14.60;;;;;;;;;;5033138;28;20754;-68
2021/11/20 00:11:35;;;;;;;22.37;14.20;;;;;;;;;;5035433;28;20555;-69
2021/11/20 00:14:03;;;;;;;19.97;15.13;;;;;;;;;;5034796;28;20225;-71
2021/11/20 00:16:30;;;;;;;20.43;14.37;;;;;;;;;;5034572;28;20212;-71
2021/11/20 00:18:59;;;;;;;20.27;15.10;;;;;;;;;;5033308;28;20774;-71
2021/11/20 00:21:29;;;;;;;19.20;14.07;;;;;;;;;;5035377;28;20224;-71
2021/11/20 00:23:58;;;;;;;20.17;15.37;;;;;;;;;;5034580;28;20230;-71
2021/11/20 00:26:30;;;;;;;22.83;16.80;;;;;;;;;;5034201;28;20217;-71
2021/11/20 00:29:18;;;;;;;25.63;15.37;;;;;;;;;;5037146;28;20209;-71
2021/11/20 00:31:48;;;;;;;31.93;17.13;;;;;;;;;;5035240;28;20215;-71
2021/11/20 00:34:17;;;;;;;24.63;17.47;;;;;;;;;;5034258;28;20319;-71
2021/11/20 00:36:44;;;;;;;27.23;18.47;;;;;;;;;;5035302;28;20220;-68
2021/11/20 00:39:13;;;;;;;26.60;19.40;;;;;;;;;;5034776;28;20298;-69
2021/11/20 00:41:41;;;;;;;24.80;19.50;;;;;;;;;;5034763;28;20665;-68
2021/11/20 00:44:07;;;;;;;30.50;19.70;;;;;;;;;;5035823;28;20208;-68
2021/11/20 00:46:34;;;;;;;25.43;20.60;;;;;;;;;;5033627;28;20286;-68
2021/11/20 00:49:02;;;;;;;23.67;18.33;;;;;;;;;;5034506;28;20229;-68
2021/11/20 00:51:30;;;;;;;30.33;21.73;;;;;;;;;;5033828;28;20251;-69
2021/11/20 00:53:57;;;;;;;31.67;21.27;;;;;;;;;;5034924;28;20254;-69
2021/11/20 00:56:26;;;;;;;30.47;21.07;;;;;;;;;;5034122;28;20675;-69
2021/11/20 00:58:53;;;;;;;24.80;20.00;;;;;;;;;;5032927;28;20221;-69
2021/11/20 01:01:31;;;;;;;28.20;20.90;;;;;;;;;;5033905;28;20245;-69
2021/11/20 01:03:57;;;;;;;24.47;18.87;;;;;;;;;;5031597;28;20272;-69
2021/11/20 01:06:26;;;;;;;24.73;19.13;;;;;;;;;;5031586;28;20217;-69
2021/11/20 01:08:54;;;;;;;25.23;19.70;;;;;;;;;;5033873;28;20220;-69
2021/11/20 01:11:35;;;;;;;29.03;19.97;;;;;;;;;;5033357;28;20267;-69
2021/11/20 01:14:06;;;;;;;24.27;20.07;;;;;;;;;;5034363;28;20231;-69
2021/11/20 01:16:33;;;;;;;27.20;21.20;;;;;;;;;;5033810;28;20679;-69
2021/11/20 01:19:02;;;;;;;27.93;20.53;;;;;;;;;;5032173;28;20675;-69
2021/11/20 01:21:30;;;;;;;29.20;20.00;;;;;;;;;;5032933;28;20222;-69
2021/11/20 01:23:57;;;;;;;25.93;19.53;;;;;;;;;;5033765;28;20727;-68
2021/11/20 01:26:23;;;;;;;24.03;18.60;;;;;;;;;;5032881;28;20842;-68
2021/11/20 01:28:53;;;;;;;22.40;18.00;;;;;;;;;;5034173;28;20690;-69
2021/11/20 01:31:22;;;;;;;22.30;16.97;;;;;;;;;;5034421;28;20221;-69
2021/11/20 01:33:49;;;;;;;23.40;18.60;;;;;;;;;;5034216;28;20243;-69
2021/11/20 01:36:18;;;;;;;24.37;17.90;;;;;;;;;;5031262;28;20209;-69
2021/11/20 01:38:47;;;;;;;21.63;17.97;;;;;;;;;;5033120;28;20213;-69
2021/11/20 01:41:15;;;;;;;23.53;19.00;;;;;;;;;;5034259;28;20263;-69
2021/11/20 01:43:42;;;;;;;22.80;18.60;;;;;;;;;;5033101;28;20282;-69
2021/11/20 01:46:14;;;;;;;23.97;18.50;;;;;;;;;;5032526;28;20209;-69
2021/11/20 01:49:00;;;;;;;21.27;18.03;;;;;;;;;;5033812;28;20273;-69
2021/11/20 01:51:31;;;;;;;20.93;17.63;;;;;;;;;;5033400;28;20248;-69
2021/11/20 01:54:08;;;;;;;24.13;18.93;;;;;;;;;;5032491;28;20663;-69
2021/11/20 01:56:42;;;;;;;20.37;17.67;;;;;;;;;;5032676;28;20221;-69
2021/11/20 01:59:15;;;;;;;27.87;18.83;;;;;;;;;;5032630;28;20461;-69
2021/11/20 02:01:47;;;;;;;19.93;17.83;;;;;;;;;;5032540;28;20644;-69
2021/11/20 02:04:19;;;;;;;22.30;17.43;;;;;;;;;;5031431;28;20573;-69
2021/11/20 02:06:50;;;;;;;21.23;16.83;;;;;;;;;;5033387;28;20263;-69
2021/11/20 02:09:22;;;;;;;20.37;17.63;;;;;;;;;;5034555;28;20228;-69
2021/11/20 02:11:52;;;;;;;22.63;18.70;;;;;;;;;;5033442;28;20228;-69
2021/11/20 02:14:20;;;;;;;22.20;18.67;;;;;;;;;;5032062;28;20225;-69
2021/11/20 02:16:50;;;;;;;23.90;19.50;;;;;;;;;;5033532;28;20485;-69
2021/11/20 02:19:21;;;;;;;23.33;19.20;;;;;;;;;;5031299;28;20695;-69
2021/11/20 02:21:52;;;;;;;21.10;18.50;;;;;;;;;;5033465;28;20225;-69
2021/11/20 02:24:18;;;;;;;24.07;20.23;;;;;;;;;;5032571;28;20681;-69
2021/11/20 02:26:44;;;;;;;24.37;18.67;;;;;;;;;;5032692;28;20293;-68
2021/11/20 02:29:14;;;;;;;20.30;17.47;;;;;;;;;;5031817;28;20763;-69
2021/11/20 02:31:45;;;;;;;23.00;18.40;;;;;;;;;;5034462;28;20208;-69
2021/11/20 02:34:12;;;;;;;27.27;19.67;;;;;;;;;;5030850;28;20291;-69
2021/11/20 02:36:39;;;;;;;24.27;19.07;;;;;;;;;;5032824;28;20733;-69
2021/11/20 02:39:13;;;;;;;21.63;19.00;;;;;;;;;;5032444;28;20234;-69
2021/11/20 02:41:40;;;;;;;22.63;19.13;;;;;;;;;;5032855;28;20603;-69
2021/11/20 02:44:08;;;;;;;23.37;19.30;;;;;;;;;;5032611;28;20684;-69
2021/11/20 02:46:39;;;;;;;24.53;19.80;;;;;;;;;;5030758;28;20216;-69
2021/11/20 02:49:10;;;;;;;24.70;19.27;;;;;;;;;;5032476;28;20276;-69
2021/11/20 02:51:40;;;;;;;25.43;19.27;;;;;;;;;;5030733;28;20575;-69
2021/11/20 02:54:10;;;;;;;23.17;18.97;;;;;;;;;;5031414;28;20685;-69
2021/11/20 02:56:39;;;;;;;22.13;19.33;;;;;;;;;;5032627;28;20598;-69
2021/11/20 02:59:06;;;;;;;20.20;17.53;;;;;;;;;;5032232;28;20225;-70
2021/11/20 03:01:35;;;;;;;22.57;17.33;;;;;;;;;;5030065;28;20243;-69
2021/11/20 03:04:03;;;;;;;22.10;18.37;;;;;;;;;;5031373;28;20600;-69
2021/11/20 03:06:32;;;;;;;23.93;17.83;;;;;;;;;;5030434;28;20255;-70
2021/11/20 03:08:58;;;;;;;23.33;18.07;;;;;;;;;;5030437;28;20536;-69
2021/11/20 03:11:25;;;;;;;22.97;18.50;;;;;;;;;;5030424;28;20221;-69
2021/11/20 03:13:54;;;;;;;22.80;19.40;;;;;;;;;;5031201;28;20283;-69
2021/11/20 03:16:20;;;;;;;24.13;18.80;;;;;;;;;;5031994;28;20234;-69
2021/11/20 03:18:47;;;;;;;24.50;18.70;;;;;;;;;;5031795;28;20237;-69
2021/11/20 03:21:15;;;;;;;22.87;19.07;;;;;;;;;;5031880;28;20227;-69
2021/11/20 03:23:45;;;;;;;22.40;19.50;;;;;;;;;;5031035;28;20262;-69
2021/11/20 03:26:12;;;;;;;25.27;19.17;;;;;;;;;;5031621;28;20210;-69
2021/11/20 03:28:38;;;;;;;23.70;19.47;;;;;;;;;;5031740;28;20214;-70
2021/11/20 03:31:05;;;;;;;28.67;20.93;;;;;;;;;;5029827;28;20221;-69
2021/11/20 03:33:32;;;;;;;22.97;19.03;;;;;;;;;;5032278;28;20287;-69
2021/11/20 03:35:59;;;;;;;24.10;20.27;;;;;;;;;;5033379;28;20658;-69
2021/11/20 03:38:26;;;;;;;26.00;21.47;;;;;;;;;;5030208;28;20214;-69
2021/11/20 03:40:54;;;;;;;28.80;21.43;;;;;;;;;;5031029;28;20720;-69
2021/11/20 03:43:20;;;;;;;28.30;22.67;;;;;;;;;;5032223;28;20236;-69
2021/11/20 03:45:47;;;;;;;27.83;23.43;;;;;;;;;;5031522;28;20232;-70
2021/11/20 03:48:14;;;;;;;29.53;23.93;;;;;;;;;;5030612;28;20824;-69
2021/11/20 03:50:42;;;;;;;28.93;23.33;;;;;;;;;;5031635;28;20225;-69
2021/11/20 03:53:09;;;;;;;32.63;25.50;;;;;;;;;;5030010;28;20271;-69
2021/11/20 03:55:38;;;;;;;30.97;24.90;;;;;;;;;;5031474;28;20230;-69
2021/11/20 03:58:06;;;;;;;36.33;26.53;;;;;;;;;;5031288;28;20278;-69
2021/11/20 04:00:36;;;;;;;30.17;25.13;;;;;;;;;;5031538;28;20218;-69
2021/11/20 04:03:03;;;;;;;27.80;24.70;;;;;;;;;;5030436;28;20271;-69
2021/11/20 04:05:33;;;;;;;33.37;25.80;;;;;;;;;;5033316;28;20856;-69
2021/11/20 04:08:00;;;;;;;35.90;27.90;;;;;;;;;;5032234;28;20217;-69
2021/11/20 04:10:27;;;;;;;33.97;26.17;;;;;;;;;;5029777;28;20211;-69
2021/11/20 04:12:53;;;;;;;32.30;25.63;;;;;;;;;;5031685;28;20218;-70
2021/11/20 04:15:24;;;;;;;32.03;26.80;;;;;;;;;;5031227;28;20250;-69
2021/11/20 04:17:50;;;;;;;30.37;25.30;;;;;;;;;;5031261;28;20257;-69
2021/11/20 04:20:19;;;;;;;28.50;25.03;;;;;;;;;;5030800;28;20218;-69
2021/11/20 04:22:46;;;;;;;30.83;26.97;;;;;;;;;;5032996;28;20285;-69
2021/11/20 04:25:15;;;;;;;34.23;24.93;;;;;;;;;;5035055;28;20742;-69
2021/11/20 04:27:42;;;;;;;29.50;23.47;;;;;;;;;;5034105;28;20260;-70
2021/11/20 04:30:11;;;;;;;30.90;25.23;;;;;;;;;;5035007;28;20210;-70
2021/11/20 04:32:39;;;;;;;31.13;25.63;;;;;;;;;;5034737;28;20225;-69
2021/11/20 04:35:07;;;;;;;28.17;25.17;;;;;;;;;;5034515;28;20237;-70
2021/11/20 04:37:34;;;;;;;30.37;25.67;;;;;;;;;;5035182;28;20604;-69
2021/11/20 04:40:00;;;;;;;30.87;25.87;;;;;;;;;;5033840;28;20276;-70
2021/11/20 04:42:27;;;;;;;28.23;25.10;;;;;;;;;;5031649;28;20284;-70
2021/11/20 04:44:53;;;;;;;29.30;25.57;;;;;;;;;;5036423;28;20611;-70
2021/11/20 04:47:19;;;;;;;31.03;25.20;;;;;;;;;;5034352;28;20280;-71
2021/11/20 04:49:47;;;;;;;28.03;24.97;;;;;;;;;;5034027;28;20217;-70
2021/11/20 04:52:15;;;;;;;26.47;23.57;;;;;;;;;;5035712;28;20298;-70
2021/11/20 04:54:42;;;;;;;28.93;25.13;;;;;;;;;;5034830;28;20234;-70
2021/11/20 04:57:08;;;;;;;27.77;23.40;;;;;;;;;;5034188;28;20708;-70
2021/11/20 04:59:35;;;;;;;28.23;25.17;;;;;;;;;;5033372;28;20213;-71
2021/11/20 05:02:01;;;;;;;29.87;25.60;;;;;;;;;;5035463;28;20216;-70
2021/11/20 05:04:27;;;;;;;26.73;23.90;;;;;;;;;;5034003;28;20293;-70
2021/11/20 05:06:55;;;;;;;29.73;25.13;;;;;;;;;;5035705;28;20241;-71
2021/11/20 05:09:22;;;;;;;29.20;26.13;;;;;;;;;;5033805;28;20211;-70
2021/11/20 05:11:49;;;;;;;29.33;25.93;;;;;;;;;;5034478;28;20216;-70
2021/11/20 05:14:15;;;;;;;29.30;25.40;;;;;;;;;;5033508;28;20724;-70
2021/11/20 05:16:42;;;;;;;26.50;23.57;;;;;;;;;;5034325;28;20295;-70
2021/11/20 05:19:08;;;;;;;26.33;23.40;;;;;;;;;;5034767;28;20311;-70
2021/11/20 05:21:35;;;;;;;26.30;23.50;;;;;;;;;;5034164;28;20218;-70
2021/11/20 05:24:03;;;;;;;27.57;22.60;;;;;;;;;;5033536;28;20202;-70
2021/11/20 05:26:30;;;;;;;27.93;23.67;;;;;;;;;;5034891;28;20221;-71
2021/11/20 05:29:03;;;;;;;26.10;22.93;;;;;;;;;;5032314;28;20217;-71
2021/11/20 05:31:30;;;;;;;31.45;28.08;;;;;;;;;;5033682;28;20519;-75
2021/11/20 05:33:57;;;;;;;27.50;24.53;;;;;;;;;;5030583;28;20271;-74
2021/11/20 05:36:26;;;;;;;27.33;24.40;;;;;;;;;;5032462;28;20681;-74
2021/11/20 05:38:53;;;;;;;27.40;22.73;;;;;;;;;;5032973;28;20987;-75
2021/11/20 05:41:20;;;;;;;27.23;24.30;;;;;;;;;;5032348;28;20221;-75
2021/11/20 05:43:47;;;;;;;26.33;22.03;;;;;;;;;;5031984;28;20221;-74
2021/11/20 05:46:16;;;;;;;24.97;21.27;;;;;;;;;;5034061;28;20672;-74
2021/11/20 05:48:42;;;;;;;30.57;22.07;;;;;;;;;;5032768;28;20272;-74
2021/11/20 05:51:09;;;;;;;24.63;21.60;;;;;;;;;;5034659;28;20238;-74
2021/11/20 05:53:36;;;;;;;26.70;23.03;;;;;;;;;;5031742;28;20212;-74
2021/11/20 05:56:05;;;;;;;27.93;22.70;;;;;;;;;;5033316;28;20226;-74
2021/11/20 05:58:33;;;;;;;26.97;22.27;;;;;;;;;;5033813;28;20412;-74
2021/11/20 06:01:01;;;;;;;26.30;23.07;;;;;;;;;;5034166;28;20214;-74
2021/11/20 06:03:28;;;;;;;26.53;22.77;;;;;;;;;;5032589;28;20316;-74
2021/11/20 06:05:55;;;;;;;28.43;23.10;;;;;;;;;;5030934;28;20209;-75
2021/11/20 06:08:23;;;;;;;29.53;23.67;;;;;;;;;;5033499;28;20270;-74
2021/11/20 06:10:51;;;;;;;26.13;21.93;;;;;;;;;;5033775;28;20579;-75
2021/11/20 06:13:18;;;;;;;24.90;21.23;;;;;;;;;;5032226;28;20220;-74
2021/11/20 06:15:46;;;;;;;31.07;24.30;;;;;;;;;;5031706;28;20228;-74
2021/11/20 06:18:12;;;;;;;29.40;24.33;;;;;;;;;;5033518;28;20249;-76
2021/11/20 06:20:41;;;;;;;28.10;21.97;;;;;;;;;;5032414;28;20463;-74
2021/11/20 06:23:09;;;;;;;30.60;25.47;;;;;;;;;;5032166;28;20221;-74
2021/11/20 06:25:35;;;;;;;28.33;23.83;;;;;;;;;;5032695;28;20596;-75
2021/11/20 06:28:02;;;;;;;29.20;23.30;;;;;;;;;;5033766;28;20206;-74
2021/11/20 06:30:29;;;;;;;29.27;24.17;;;;;;;;;;5031084;28;20217;-74
2021/11/20 06:32:57;;;;;;;31.40;24.43;;;;;;;;;;5032463;28;20228;-75
2021/11/20 06:35:26;;;;;;;32.37;25.73;;;;;;;;;;5031935;28;21245;-74
2021/11/20 06:37:53;;;;;;;28.33;23.30;;;;;;;;;;5032407;28;20218;-74
2021/11/20 06:40:22;;;;;;;32.27;24.73;;;;;;;;;;5029667;28;20220;-74
2021/11/20 06:42:49;;;;;;;28.40;22.43;;;;;;;;;;5031057;28;20606;-74
2021/11/20 06:45:19;;;;;;;29.63;23.87;;;;;;;;;;5032106;28;20214;-74
2021/11/20 06:47:45;;;;;;;30.00;24.27;;;;;;;;;;5031119;28;20294;-75
2021/11/20 06:50:14;;;;;;;31.20;24.07;;;;;;;;;;5032610;28;20271;-74
2021/11/20 06:52:40;;;;;;;31.97;25.77;;;;;;;;;;5031037;28;20242;-74
2021/11/20 06:55:09;;;;;;;28.33;23.93;;;;;;;;;;5031496;28;20233;-74
2021/11/20 07:00:27;;;;;;;30.63;25.53;;;;;;;;;;5024721;28;20688;-74
2021/11/20 07:02:56;;;;;;;29.53;25.03;;;;;;;;;;5029765;28;20272;-75
2021/11/20 07:05:25;;;;;;;28.20;23.47;;;;;;;;;;5030720;28;20292;-74
2021/11/20 07:07:52;;;;;;;30.10;24.03;;;;;;;;;;5029262;28;20695;-74
2021/11/20 07:10:22;;;;;;;32.97;25.03;;;;;;;;;;5029718;28;20767;-74
2021/11/20 07:12:48;;;;;;;28.87;23.47;;;;;;;;;;5029255;28;20308;-74
2021/11/20 07:15:15;;;;;;;28.03;22.80;;;;;;;;;;5028474;28;20282;-74
2021/11/20 07:17:41;;;;;;;28.13;23.57;;;;;;;;;;5030074;28;20227;-74
2021/11/20 07:20:09;;;;;;;24.67;21.90;;;;;;;;;;5028145;28;20652;-74
2021/11/20 07:22:36;;;;;;;28.43;23.43;;;;;;;;;;5029526;28;20210;-74
2021/11/20 07:25:04;;;;;;;27.77;23.03;;;;;;;;;;5030430;28;20764;-74
2021/11/20 07:27:30;;;;;;;24.53;21.60;;;;;;;;;;5029212;28;20222;-74
2021/11/20 07:29:57;;;;;;;24.30;21.10;;;;;;;;;;5029651;28;20207;-74
2021/11/20 07:32:27;;;;;;;23.97;21.47;;;;;;;;;;5028532;28;20256;-74
2021/11/20 07:34:54;;;;;;;25.47;22.87;;;;;;;;;;5029769;28;20236;-74
2021/11/20 07:37:21;;;;;;;25.47;22.70;;;;;;;;;;5029275;28;20734;-74
2021/11/20 07:39:49;;;;;;;25.70;23.07;;;;;;;;;;5029900;28;20213;-75
2021/11/20 07:42:16;;;;;;;26.37;23.73;;;;;;;;;;5029274;28;20354;-74
2021/11/20 07:44:42;;;;;;;27.77;24.87;;;;;;;;;;5028568;28;20210;-74
2021/11/20 07:47:10;;;;;;;27.23;24.33;;;;;;;;;;5028453;28;20818;-76
2021/11/20 07:49:36;;;;;;;26.27;23.63;;;;;;;;;;5029998;28;20216;-74
2021/11/20 07:52:04;;;;;;;26.67;23.87;;;;;;;;;;5028536;28;20258;-74
2021/11/20 07:54:30;;;;;;;28.43;25.27;;;;;;;;;;5028777;28;20704;-74
2021/11/20 07:56:58;;;;;;;25.63;23.00;;;;;;;;;;5030925;28;20214;-75
2021/11/20 07:59:25;;;;;;;25.07;22.40;;;;;;;;;;5033263;28;20819;-74
2021/11/20 08:01:51;;;;;;;27.53;24.83;;;;;;;;;;5032622;28;20708;-74
2021/11/20 08:04:18;;;;;;;28.57;24.97;;;;;;;;;;5033415;28;20222;-74
2021/11/20 08:06:44;;;;;;;28.07;25.17;;;;;;;;;;5033176;28;20217;-74
2021/11/20 08:09:11;;;;;;;29.20;26.20;;;;;;;;;;5034672;28;20653;-74
2021/11/20 08:11:39;;;;;;;29.47;26.53;;;;;;;;;;5033100;28;20271;-74
2021/11/20 08:14:08;;;;;;;30.50;27.37;;;;;;;;;;5033240;28;20217;-74
2021/11/20 08:16:37;;;;;;;31.47;28.07;;;;;;;;;;5033454;28;20229;-74
2021/11/20 08:19:04;;;;;;;29.07;25.97;;;;;;;;;;5033826;28;20245;-74
2021/11/20 08:21:31;;;;;;;30.10;26.90;;;;;;;;;;5032949;28;20217;-73
2021/11/20 08:23:57;;;;;;;31.70;28.40;;;;;;;;;;5033515;28;20295;-74
2021/11/20 08:26:25;;;;;;;31.10;27.67;;;;;;;;;;5032795;28;20867;-74
2021/11/20 08:28:52;;;;;;;31.63;28.23;;;;;;;;;;5034050;28;20310;-73
2021/11/20 08:31:20;;;;;;;32.40;29.00;;;;;;;;;;5031999;28;20221;-74
2021/11/20 08:33:47;;;;;;;32.03;28.63;;;;;;;;;;5033724;28;20226;-74
2021/11/20 08:36:14;;;;;;;31.53;28.13;;;;;;;;;;5031109;28;20232;-74
2021/11/20 08:38:42;;;;;;;34.03;28.83;;;;;;;;;;5034204;28;20692;-76
2021/11/20 08:41:09;;;;;;;34.60;29.50;;;;;;;;;;5031605;28;20279;-74
2021/11/20 08:43:36;;;;;;;33.37;29.67;;;;;;;;;;5032559;28;20315;-74
2021/11/20 08:46:06;;;;;;;32.70;28.87;;;;;;;;;;5032198;28;20226;-74
2021/11/20 08:48:34;;;;;;;35.83;31.23;;;;;;;;;;5032338;28;20250;-73
2021/11/20 08:51:04;;;;;;;36.40;31.07;;;;;;;;;;5031804;28;20708;-73
2021/11/20 08:53:31;;;;;;;34.83;29.77;;;;;;;;;;5031526;28;20209;-74
2021/11/20 08:55:59;;;;;;;35.00;31.17;;;;;;;;;;5033734;28;20229;-75
2021/11/20 08:58:25;;;;;;;36.50;29.33;;;;;;;;;;5032738;28;20280;-75
2021/11/20 09:00:56;;;;;;;34.27;28.17;;;;;;;;;;5032226;28;21516;-75
2021/11/20 09:03:28;;;;;;;35.77;30.73;;;;;;;;;;5033959;28;20337;-76
2021/11/20 09:05:59;;;;;;;34.97;31.17;;;;;;;;;;5031540;28;20750;-76
2021/11/20 09:08:32;;;;;;;37.83;33.40;;;;;;;;;;5030604;28;20217;-76
2021/11/20 09:11:03;;;;;;;37.20;30.00;;;;;;;;;;5031794;28;20292;-73
2021/11/20 09:13:33;;;;;;;35.90;31.73;;;;;;;;;;5029868;28;20218;-73
2021/11/20 09:16:03;;;;;;;37.27;32.80;;;;;;;;;;5031643;28;20808;-74
2021/11/20 09:18:31;;;;;;;39.30;33.83;;;;;;;;;;5030641;28;20233;-74
2021/11/20 09:21:00;;;;;;;39.13;32.93;;;;;;;;;;5035585;28;20771;-74
2021/11/20 09:23:26;;;;;;;38.73;32.93;;;;;;;;;;5033716;28;20695;-76
2021/11/20 09:25:55;;;;;;;36.43;31.93;;;;;;;;;;5034016;28;20218;-79
2021/11/20 09:28:22;;;;;;;38.20;32.83;;;;;;;;;;5031137;28;20837;-77
2021/11/20 09:30:52;;;;;;;39.30;34.37;;;;;;;;;;5034129;28;20634;-77
2021/11/20 09:33:19;;;;;;;38.00;33.10;;;;;;;;;;5032109;28;20235;-76
2021/11/20 09:35:46;;;;;;;39.40;34.93;;;;;;;;;;5035468;28;21240;-79
2021/11/20 09:38:15;;;;;;;42.03;34.43;;;;;;;;;;5039854;28;20234;-77
2021/11/20 09:40:44;;;;;;;40.10;34.10;;;;;;;;;;5037848;28;20213;-77
2021/11/20 09:43:18;;;;;;;37.87;33.57;;;;;;;;;;5033153;28;20417;-75
2021/11/20 09:45:51;;;;;;;39.20;34.10;;;;;;;;;;5033115;28;20202;-73
2021/11/20 09:48:20;;;;;;;38.27;33.70;;;;;;;;;;5032788;28;20687;-75
2021/11/20 09:50:56;;;;;;;41.90;33.80;;;;;;;;;;5034258;28;20298;-78
2021/11/20 09:53:25;;;;;;;39.50;32.67;;;;;;;;;;5029774;28;20242;-74
2021/11/20 09:55:54;;;;;;;37.97;33.53;;;;;;;;;;5031810;28;20714;-74
2021/11/20 09:58:23;;;;;;;38.60;32.47;;;;;;;;;;5031284;28;20206;-71
2021/11/20 10:01:14;;;;;;;38.27;33.57;;;;;;;;;;5032048;28;20290;-71
2021/11/20 10:03:46;;;;;;;37.53;33.07;;;;;;;;;;5030618;28;20222;-71
2021/11/20 10:06:14;;;;;;;36.80;32.00;;;;;;;;;;5026733;28;20213;-71
2021/11/20 10:08:44;;;;;;;37.50;31.90;;;;;;;;;;5029388;28;20494;-69
2021/11/20 10:11:33;;;;;;;37.30;31.27;;;;;;;;;;5026685;28;20221;-70
2021/11/20 10:14:02;;;;;;;38.70;32.47;;;;;;;;;;5028726;28;20216;-71
2021/11/20 10:16:39;;;;;;;37.70;32.33;;;;;;;;;;5026518;28;20297;-72
2021/11/20 10:19:10;;;;;;;37.27;31.43;;;;;;;;;;5027687;28;20610;-71
2021/11/20 10:21:42;;;;;;;38.20;33.10;;;;;;;;;;5027466;28;20257;-72
2021/11/20 10:24:16;;;;;;;38.77;32.63;;;;;;;;;;5032310;28;21100;-72
2021/11/20 10:27:09;;;;;;;40.30;31.63;;;;;;;;;;5030653;28;20218;-72
2021/11/20 10:30:00;;;;;;;40.90;31.67;;;;;;;;;;5030580;28;20718;-73
2021/11/20 10:32:35;;;;;;;36.17;30.50;;;;;;;;;;5028836;28;20252;-73
2021/11/20 10:35:06;;;;;;;39.60;32.87;;;;;;;;;;5031097;28;20304;-73
2021/11/20 10:37:36;;;;;;;39.67;33.00;;;;;;;;;;5029538;28;20226;-73
2021/11/20 10:40:18;;;;;;;39.83;32.70;;;;;;;;;;5030494;28;20222;-72
2021/11/20 10:42:54;;;;;;;40.67;33.10;;;;;;;;;;5031017;28;20212;-74
2021/11/20 10:45:29;;;;;;;38.47;32.00;;;;;;;;;;5034375;28;20201;-75
2021/11/20 10:48:00;;;;;;;39.67;30.80;;;;;;;;;;5031799;28;21065;-77
2021/11/20 10:50:33;;;;;;;40.47;32.70;;;;;;;;;;5031063;28;20234;-75
2021/11/20 10:53:40;;;;;;;42.10;33.00;;;;;;;;;;5029934;28;20247;-74
2021/11/20 10:56:35;;;;;;;43.77;33.13;;;;;;;;;;5031439;28;20233;-75
2021/11/20 10:59:36;;;;;;;42.77;33.37;;;;;;;;;;5023861;28;20206;-74
2021/11/20 11:02:56;;;;;;;41.37;33.93;;;;;;;;;;5031836;28;20606;-74
2021/11/20 11:05:41;;;;;;;44.50;33.17;;;;;;;;;;5029776;28;20267;-75
2021/11/20 11:08:19;;;;;;;42.80;33.20;;;;;;;;;;5030585;28;20253;-75
2021/11/20 11:10:49;;;;;;;45.03;34.03;;;;;;;;;;5029445;28;20212;-74
2021/11/20 11:13:30;;;;;;;45.77;35.63;;;;;;;;;;5030507;28;20719;-75
2021/11/20 11:16:05;;;;;;;45.57;34.93;;;;;;;;;;5030640;28;20725;-75
2021/11/20 11:18:39;;;;;;;47.43;34.57;;;;;;;;;;5028148;28;20232;-75
2021/11/20 11:21:54;;;;;;;45.40;34.63;;;;;;;;;;5030578;28;20217;-75
2021/11/20 11:24:32;;;;;;;51.20;37.43;;;;;;;;;;5028768;28;20225;-75
2021/11/20 11:27:07;;;;;;;45.80;36.63;;;;;;;;;;5028492;28;20214;-75
2021/11/20 11:29:50;;;;;;;50.77;36.83;;;;;;;;;;5030149;28;20437;-75
2021/11/20 11:32:17;;;;;;;51.87;38.70;;;;;;;;;;5030250;28;20223;-75
2021/11/20 11:34:48;;;;;;;50.77;39.43;;;;;;;;;;5028669;28;20218;-74
2021/11/20 11:37:23;;;;;;;52.90;38.03;;;;;;;;;;5029944;28;20687;-75
2021/11/20 11:39:54;;;;;;;57.23;40.20;;;;;;;;;;5031051;28;20283;-76
2021/11/20 11:42:34;;;;;;;54.27;38.20;;;;;;;;;;5026190;28;20297;-75
2021/11/20 11:45:08;;;;;;;55.57;39.37;;;;;;;;;;5029127;28;20201;-75
2021/11/20 11:47:46;;;;;;;52.20;37.53;;;;;;;;;;5027951;28;20243;-75
2021/11/20 11:50:28;;;;;;;56.97;39.17;;;;;;;;;;5027288;28;20248;-75
2021/11/20 11:52:59;;;;;;;54.93;37.60;;;;;;;;;;5031019;28;20237;-78
2021/11/20 11:55:43;;;;;;;57.27;38.73;;;;;;;;;;5028286;28;20726;-76
2021/11/20 11:58:20;;;;;;;56.47;38.57;;;;;;;;;;5029531;28;20200;-75
2021/11/20 12:01:00;;;;;;;57.13;39.30;;;;;;;;;;5028643;28;20214;-75
2021/11/20 12:03:31;;;;;;;56.37;38.00;;;;;;;;;;5030230;28;20299;-75
2021/11/20 12:06:34;;;;;;;58.93;37.67;;;;;;;;;;5029767;28;20210;-75
2021/11/20 12:09:04;;;;;;;51.27;33.90;;;;;;;;;;5029988;28;20872;-75
2021/11/20 12:11:34;;;;;;;51.83;36.87;;;;;;;;;;5029532;28;20208;-75
2021/11/20 12:14:11;;;;;;;52.50;38.27;;;;;;;;;;5030525;28;20221;-75
2021/11/20 12:16:56;;;;;;;51.10;36.83;;;;;;;;;;5028978;28;20216;-75
2021/11/20 12:19:28;;;;;;;58.03;38.30;;;;;;;;;;5029710;28;20890;-75
2021/11/20 12:22:11;;;;;;;59.13;39.37;;;;;;;;;;5028503;28;20217;-75
2021/11/20 12:24:43;;;;;;;56.00;39.03;;;;;;;;;;5030383;28;20251;-75
2021/11/20 12:27:27;;;;;;;58.07;39.87;;;;;;;;;;5029782;28;20222;-75
2021/11/20 12:30:26;;;;;;;57.37;38.47;;;;;;;;;;5029618;28;20201;-75
2021/11/20 12:33:09;;;;;;;57.23;37.17;;;;;;;;;;5029928;28;20237;-76
2021/11/20 12:35:47;;;;;;;53.50;36.83;;;;;;;;;;5029617;28;20766;-75
2021/11/20 12:38:23;;;;;;;52.17;36.00;;;;;;;;;;5029532;28;20562;-75
2021/11/20 12:41:07;;;;;;;51.07;34.83;;;;;;;;;;5027510;28;20323;-75
2021/11/20 12:43:50;;;;;;;55.00;36.20;;;;;;;;;;5030174;28;20219;-73
2021/11/20 12:46:45;;;;;;;53.63;35.60;;;;;;;;;;5032349;28;20307;-74
2021/11/20 12:49:26;;;;;;;47.63;33.83;;;;;;;;;;5027729;28;20244;-74
2021/11/20 12:52:01;;;;;;;48.07;33.17;;;;;;;;;;5032475;28;20295;-74
2021/11/20 12:54:43;;;;;;;47.50;30.80;;;;;;;;;;5033378;28;20213;-74
2021/11/20 12:57:17;;;;;;;47.67;32.87;;;;;;;;;;5034228;28;20659;-74
2021/11/20 12:59:46;;;;;;;48.53;34.30;;;;;;;;;;5032483;28;20267;-74
2021/11/20 13:02:24;;;;;;;51.07;35.17;;;;;;;;;;5033373;28;20217;-74
2021/11/20 13:04:54;;;;;;;47.43;32.40;;;;;;;;;;5033874;28;20213;-73
2021/11/20 13:07:23;;;;;;;47.53;33.33;;;;;;;;;;5032206;28;20274;-74
2021/11/20 13:09:57;;;;;;;48.23;33.90;;;;;;;;;;5034345;28;20201;-73
2021/11/20 13:12:29;;;;;;;49.20;33.50;;;;;;;;;;5029544;28;20263;-74
2021/11/20 13:15:20;;;;;;;50.10;34.13;;;;;;;;;;5033654;28;20207;-74
2021/11/20 13:17:58;;;;;;;47.07;31.70;;;;;;;;;;5031738;28;20780;-74
2021/11/20 13:20:34;;;;;;;45.77;32.07;;;;;;;;;;5031073;28;20674;-74
2021/11/20 13:23:09;;;;;;;42.93;30.37;;;;;;;;;;5033538;28;20219;-74
2021/11/20 13:26:13;;;;;;;42.63;30.90;;;;;;;;;;5033131;28;20260;-73
2021/11/20 13:28:44;;;;;;;42.80;27.73;;;;;;;;;;5032341;28;20591;-74
2021/11/20 13:31:12;;;;;;;45.33;29.87;;;;;;;;;;5031930;28;20291;-74
2021/11/20 13:33:44;;;;;;;43.20;30.40;;;;;;;;;;5032328;28;20622;-74
2021/11/20 13:36:11;;;;;;;40.90;31.07;;;;;;;;;;5031709;28;20243;-74
2021/11/20 13:38:37;;;;;;;42.90;29.80;;;;;;;;;;5033090;28;20287;-73
2021/11/20 13:41:05;;;;;;;36.60;26.53;;;;;;;;;;5032072;28;20399;-74
2021/11/20 13:43:34;;;;;;;39.70;26.70;;;;;;;;;;5031697;28;20211;-74
2021/11/20 13:46:07;;;;;;;33.17;24.43;;;;;;;;;;5033134;28;20574;-73
2021/11/20 13:48:35;;;;;;;36.60;24.90;;;;;;;;;;5031488;28;20228;-74
2021/11/20 13:51:13;;;;;;;39.27;28.43;;;;;;;;;;5031814;28;20237;-73
2021/11/20 13:53:39;;;;;;;39.00;28.20;;;;;;;;;;5032762;28;20263;-75
2021/11/20 13:56:10;;;;;;;45.57;29.90;;;;;;;;;;5033517;28;20635;-74
2021/11/20 13:58:39;;;;;;;46.73;30.10;;;;;;;;;;5030715;28;20229;-74
2021/11/20 14:01:15;;;;;;;41.20;28.17;;;;;;;;;;5030866;28;20400;-74
2021/11/20 14:03:51;;;;;;;44.23;30.67;;;;;;;;;;5031343;28;20225;-74
2021/11/20 14:06:18;;;;;;;44.87;30.27;;;;;;;;;;5029233;28;20205;-74
2021/11/20 14:08:44;;;;;;;42.57;29.07;;;;;;;;;;5032433;28;20944;-74
2021/11/20 14:11:17;;;;;;;45.77;30.27;;;;;;;;;;5031003;28;20792;-74
2021/11/20 14:13:43;;;;;;;47.87;31.00;;;;;;;;;;5032647;28;20638;-74
2021/11/20 14:16:11;;;;;;;46.33;31.53;;;;;;;;;;5030257;28;20283;-74
2021/11/20 14:18:46;;;;;;;44.47;28.83;;;;;;;;;;5030955;28;20759;-74
2021/11/20 14:21:16;;;;;;;43.80;28.37;;;;;;;;;;5031261;28;20219;-73
2021/11/20 14:23:54;;;;;;;48.20;31.33;;;;;;;;;;5030894;28;20214;-74
2021/11/20 14:26:20;;;;;;;50.97;31.30;;;;;;;;;;5030407;28;20205;-73
2021/11/20 14:28:47;;;;;;;48.73;29.87;;;;;;;;;;5031154;28;20212;-74
2021/11/20 14:31:18;;;;;;;48.03;30.70;;;;;;;;;;5031415;28;20973;-74
2021/11/20 14:33:53;;;;;;;54.07;33.70;;;;;;;;;;5030865;28;20236;-74
2021/11/20 14:36:30;;;;;;;55.67;33.50;;;;;;;;;;5031466;28;20266;-74
2021/11/20 14:38:57;;;;;;;64.33;36.93;;;;;;;;;;5030840;28;20241;-74
2021/11/20 14:41:37;;;;;;;59.07;34.63;;;;;;;;;;5031352;28;20217;-75